Detall de PIREP

Printer-friendly versionPDF version

[2011/04/30 21:49:00]
Flight IATA:CT1001
Pilot Number:026
Company ICAO:CAT
Aircraft Type:F50/A
PAX:50
Aircraft Registration:PAOB
Departing Airport: LIEA
Destination Airport: LEIB
Alternate Airport:LEPA
Online: VATSIM
Route:SUPUX UZ924 RIPAL UM603 MORSS
Flight Level:F230
No Slew and time accel
No pause
Crash detect
Detect pilot in Cockpit between each 30 and 45 minutes
21:49 Zero fuel Weight: 39183 Lbs, Fuel Weight: 3699 Lbs
21:49 VATSIM:LIEA 302120Z 03013KT 9999 SCT030 14/14 Q1001
21:49 VATSIM:LEIB 302130Z 00000KT 9999 FEW025 16/14 Q1005 NOSIG
21:49 VOICE CATALONIAN / MEDITERRANEAN ODYSSEY LEG6
21:54 Parking Brakes off
22:03 Take-off
22:03 Take off Weight: 42743 Lbs
22:03 Wind: 030º @ 013 Knots Heading: 025º
22:03 POS N40º 38´ 20´´ E008º 17´ 43´´
22:03 Gear Up: 133 Knots
22:03 Flaps:2 at 133 Knots
22:03 Flaps:1 at 118 Knots
22:05 Flaps:0 at 126 Knots
22:18 Wind:028º@025 Knots Heading: 265º Ground Speed: 259 Knots Altitude 16653 ft
22:29 TOC
22:29 Fuel Weight: 2565 Lb
22:33 Wind:015º@011 Knots Heading: 263º Ground Speed: 270 Knots Altitude 22791 ft
22:48 Wind:000º@011 Knots Heading: 256º Ground Speed: 268 Knots Altitude 22755 ft
23:03 Wind:121º@006 Knots Heading: 248º Ground Speed: 260 Knots Altitude 22755 ft
23:05 TOD
23:05 Fuel Weight: 1568 Lb
23:18 Wind:111º@000 Knots Heading: 242º Ground Speed: 248 Knots Altitude 7939 ft
23:24 Flaps:1 at 143 Knots
23:24 Gear Down: 143 Knots
23:24 Flaps:2 at 132 Knots
23:25 Flaps:3 at 126 Knots
23:25 Flaps:4 at 111 Knots
23:26 Flaps:5 at 102 Knots
23:26 Flaps:6 at 99 Knots
23:27 TouchDown:Rate -154 ft/min Speed: 89 Knots
23:27 VATSIM:LEIB 302300Z 00000KT 9999 FEW025 15/14 Q1005 NOSIG
23:27 Land
23:27 Wind:138º@001 Knots
23:27 Heading: 241º
23:27 Flight Duration: 01:24
23:27Landing Weight: 40358 Lbs
23:27 POS N38º 52´ 25´´ E001º 22´ 31´´
23:31 Parking brakes on
23:31 Block to Block Duration: 01:37
23:31 Final Fuel: 1141 Lbls
23:31 Spent Fuel: 2557 Lbls
23:31 Flight Length: 351 NM
23:31 TOD Land Length: 85 NM

Exportar CSV

Powered by Drupal - Modified by Danger4k